sensor_id;sensor_type;location;lat;lon;timestamp;P1;durP1;ratioP1;P2;durP2;ratioP2
47778;SDS011;33538;48.432;11.350;2022-07-10T00:00:14;2.00;;;1.50;;
47778;SDS011;33538;48.432;11.350;2022-07-10T00:02:41;1.50;;;1.40;;
47778;SDS011;33538;48.432;11.350;2022-07-10T00:05:09;2.00;;;1.60;;
47778;SDS011;33538;48.432;11.350;2022-07-10T00:07:45;2.42;;;1.60;;
47778;SDS011;33538;48.432;11.350;2022-07-10T00:10:13;2.22;;;1.83;;
47778;SDS011;33538;48.432;11.350;2022-07-10T00:12:40;1.63;;;1.52;;
47778;SDS011;33538;48.432;11.350;2022-07-10T00:15:08;1.58;;;1.48;;
47778;SDS011;33538;48.432;11.350;2022-07-10T00:17:35;2.78;;;1.92;;
47778;SDS011;33538;48.432;11.350;2022-07-10T00:20:02;1.60;;;1.50;;
47778;SDS011;33538;48.432;11.350;2022-07-10T00:22:29;1.73;;;1.63;;
47778;SDS011;33538;48.432;11.350;2022-07-10T00:24:56;2.53;;;1.70;;
47778;SDS011;33538;48.432;11.350;2022-07-10T00:27:24;1.52;;;1.42;;
47778;SDS011;33538;48.432;11.350;2022-07-10T00:29:51;1.67;;;1.45;;
47778;SDS011;33538;48.432;11.350;2022-07-10T00:32:18;2.05;;;1.88;;
47778;SDS011;33538;48.432;11.350;2022-07-10T00:34:45;2.83;;;1.77;;
47778;SDS011;33538;48.432;11.350;2022-07-10T00:37:11;2.30;;;1.73;;
47778;SDS011;33538;48.432;11.350;2022-07-10T00:39:38;2.78;;;2.10;;
47778;SDS011;33538;48.432;11.350;2022-07-10T00:42:05;1.92;;;1.73;;
47778;SDS011;33538;48.432;11.350;2022-07-10T00:44:35;1.92;;;1.55;;
47778;SDS011;33538;48.432;11.350;2022-07-10T00:47:02;1.75;;;1.63;;
47778;SDS011;33538;48.432;11.350;2022-07-10T00:49:30;2.28;;;1.75;;
47778;SDS011;33538;48.432;11.350;2022-07-10T00:51:57;2.42;;;1.83;;
47778;SDS011;33538;48.432;11.350;2022-07-10T00:54:26;2.22;;;1.70;;
47778;SDS011;33538;48.432;11.350;2022-07-10T00:56:54;2.28;;;1.98;;
47778;SDS011;33538;48.432;11.350;2022-07-10T00:59:21;1.95;;;1.70;;
47778;SDS011;33538;48.432;11.350;2022-07-10T01:01:50;3.40;;;2.00;;
47778;SDS011;33538;48.432;11.350;2022-07-10T01:04:17;2.70;;;2.10;;
47778;SDS011;33538;48.432;11.350;2022-07-10T01:06:44;3.10;;;2.10;;
47778;SDS011;33538;48.432;11.350;2022-07-10T01:09:11;2.20;;;1.88;;
47778;SDS011;33538;48.432;11.350;2022-07-10T01:11:38;1.98;;;1.83;;
47778;SDS011;33538;48.432;11.350;2022-07-10T01:14:05;2.22;;;2.00;;
47778;SDS011;33538;48.432;11.350;2022-07-10T01:16:32;3.63;;;2.25;;
47778;SDS011;33538;48.432;11.350;2022-07-10T01:19:01;2.20;;;2.00;;
47778;SDS011;33538;48.432;11.350;2022-07-10T01:21:30;4.15;;;2.00;;
47778;SDS011;33538;48.432;11.350;2022-07-10T01:23:57;2.78;;;1.80;;
47778;SDS011;33538;48.432;11.350;2022-07-10T01:26:25;4.32;;;1.98;;
47778;SDS011;33538;48.432;11.350;2022-07-10T01:28:52;2.53;;;1.60;;
47778;SDS011;33538;48.432;11.350;2022-07-10T01:31:20;1.90;;;1.70;;
47778;SDS011;33538;48.432;11.350;2022-07-10T01:33:51;2.78;;;1.98;;
47778;SDS011;33538;48.432;11.350;2022-07-10T01:36:18;1.67;;;1.50;;
47778;SDS011;33538;48.432;11.350;2022-07-10T01:38:47;2.40;;;1.88;;
47778;SDS011;33538;48.432;11.350;2022-07-10T01:41:16;2.20;;;1.83;;
47778;SDS011;33538;48.432;11.350;2022-07-10T01:43:43;2.58;;;1.60;;
47778;SDS011;33538;48.432;11.350;2022-07-10T01:46:10;2.58;;;1.98;;
47778;SDS011;33538;48.432;11.350;2022-07-10T01:48:38;1.88;;;1.70;;
47778;SDS011;33538;48.432;11.350;2022-07-10T01:51:06;2.63;;;1.85;;
47778;SDS011;33538;48.432;11.350;2022-07-10T01:53:34;2.40;;;1.85;;
47778;SDS011;33538;48.432;11.350;2022-07-10T01:56:03;2.22;;;1.80;;
47778;SDS011;33538;48.432;11.350;2022-07-10T01:58:31;3.40;;;1.75;;
47778;SDS011;33538;48.432;11.350;2022-07-10T02:00:58;2.88;;;2.10;;
47778;SDS011;33538;48.432;11.350;2022-07-10T02:03:25;3.00;;;2.03;;
47778;SDS011;33538;48.432;11.350;2022-07-10T02:05:52;2.47;;;1.73;;
47778;SDS011;33538;48.432;11.350;2022-07-10T02:08:18;3.25;;;1.75;;
47778;SDS011;33538;48.432;11.350;2022-07-10T02:10:45;2.15;;;1.80;;
47778;SDS011;33538;48.432;11.350;2022-07-10T02:13:14;2.50;;;1.90;;
47778;SDS011;33538;48.432;11.350;2022-07-10T02:15:40;2.67;;;1.75;;
47778;SDS011;33538;48.432;11.350;2022-07-10T02:18:07;2.08;;;1.60;;
47778;SDS011;33538;48.432;11.350;2022-07-10T02:20:34;2.42;;;1.83;;
47778;SDS011;33538;48.432;11.350;2022-07-10T02:23:01;3.10;;;2.13;;
47778;SDS011;33538;48.432;11.350;2022-07-10T02:25:28;2.28;;;1.60;;
47778;SDS011;33538;48.432;11.350;2022-07-10T02:27:55;2.25;;;2.00;;
47778;SDS011;33538;48.432;11.350;2022-07-10T02:30:23;2.78;;;1.85;;
47778;SDS011;33538;48.432;11.350;2022-07-10T02:32:50;1.85;;;1.67;;
47778;SDS011;33538;48.432;11.350;2022-07-10T02:35:16;2.38;;;1.80;;
47778;SDS011;33538;48.432;11.350;2022-07-10T02:37:43;5.40;;;1.85;;
47778;SDS011;33538;48.432;11.350;2022-07-10T02:40:10;3.33;;;2.00;;
47778;SDS011;33538;48.432;11.350;2022-07-10T02:42:37;2.10;;;1.70;;
47778;SDS011;33538;48.432;11.350;2022-07-10T02:45:04;4.45;;;1.90;;
47778;SDS011;33538;48.432;11.350;2022-07-10T02:47:33;3.17;;;1.98;;
47778;SDS011;33538;48.432;11.350;2022-07-10T02:49:59;2.30;;;2.08;;
47778;SDS011;33538;48.432;11.350;2022-07-10T02:52:26;3.67;;;1.85;;
47778;SDS011;33538;48.432;11.350;2022-07-10T02:54:53;3.45;;;1.65;;
47778;SDS011;33538;48.432;11.350;2022-07-10T02:57:20;2.25;;;1.88;;
47778;SDS011;33538;48.432;11.350;2022-07-10T02:59:47;3.30;;;1.90;;
47778;SDS011;33538;48.432;11.350;2022-07-10T03:02:14;2.75;;;1.98;;
47778;SDS011;33538;48.432;11.350;2022-07-10T03:04:42;4.10;;;2.08;;
47778;SDS011;33538;48.432;11.350;2022-07-10T03:07:09;3.97;;;2.10;;
47778;SDS011;33538;48.432;11.350;2022-07-10T03:09:36;3.22;;;2.15;;
47778;SDS011;33538;48.432;11.350;2022-07-10T03:12:03;2.40;;;1.90;;
47778;SDS011;33538;48.432;11.350;2022-07-10T03:14:30;5.57;;;2.30;;
47778;SDS011;33538;48.432;11.350;2022-07-10T03:16:57;2.35;;;2.00;;
47778;SDS011;33538;48.432;11.350;2022-07-10T03:19:24;3.47;;;2.03;;
47778;SDS011;33538;48.432;11.350;2022-07-10T03:21:52;2.33;;;2.00;;
47778;SDS011;33538;48.432;11.350;2022-07-10T03:24:19;3.17;;;2.28;;
47778;SDS011;33538;48.432;11.350;2022-07-10T03:26:45;2.95;;;2.28;;
47778;SDS011;33538;48.432;11.350;2022-07-10T03:29:12;3.05;;;2.28;;
47778;SDS011;33538;48.432;11.350;2022-07-10T03:31:39;3.33;;;2.33;;
47778;SDS011;33538;48.432;11.350;2022-07-10T03:34:06;4.18;;;2.15;;
47778;SDS011;33538;48.432;11.350;2022-07-10T03:36:33;3.03;;;2.25;;
47778;SDS011;33538;48.432;11.350;2022-07-10T03:39:01;2.97;;;2.60;;
47778;SDS011;33538;48.432;11.350;2022-07-10T03:41:28;2.47;;;1.85;;
47778;SDS011;33538;48.432;11.350;2022-07-10T03:43:54;2.88;;;1.92;;
47778;SDS011;33538;48.432;11.350;2022-07-10T03:46:21;2.45;;;2.00;;
47778;SDS011;33538;48.432;11.350;2022-07-10T03:48:48;3.78;;;1.83;;
47778;SDS011;33538;48.432;11.350;2022-07-10T03:51:15;2.83;;;2.30;;
47778;SDS011;33538;48.432;11.350;2022-07-10T03:53:41;2.00;;;1.60;;
47778;SDS011;33538;48.432;11.350;2022-07-10T03:56:10;2.10;;;1.75;;
47778;SDS011;33538;48.432;11.350;2022-07-10T03:58:36;2.22;;;1.88;;
47778;SDS011;33538;48.432;11.350;2022-07-10T04:01:04;3.05;;;2.03;;
47778;SDS011;33538;48.432;11.350;2022-07-10T04:03:30;2.35;;;1.70;;
47778;SDS011;33538;48.432;11.350;2022-07-10T04:05:57;2.70;;;2.10;;
47778;SDS011;33538;48.432;11.350;2022-07-10T04:08:24;2.50;;;1.75;;
47778;SDS011;33538;48.432;11.350;2022-07-10T04:10:51;4.35;;;2.42;;
47778;SDS011;33538;48.432;11.350;2022-07-10T04:13:20;2.30;;;2.10;;
47778;SDS011;33538;48.432;11.350;2022-07-10T04:15:47;2.03;;;1.83;;
47778;SDS011;33538;48.432;11.350;2022-07-10T04:18:14;3.03;;;2.00;;
47778;SDS011;33538;48.432;11.350;2022-07-10T04:20:40;4.07;;;2.45;;
47778;SDS011;33538;48.432;11.350;2022-07-10T04:23:07;4.72;;;2.47;;
47778;SDS011;33538;48.432;11.350;2022-07-10T04:25:34;2.70;;;2.10;;
47778;SDS011;33538;48.432;11.350;2022-07-10T04:28:01;3.38;;;2.45;;
47778;SDS011;33538;48.432;11.350;2022-07-10T04:30:29;3.22;;;2.22;;
47778;SDS011;33538;48.432;11.350;2022-07-10T04:32:55;2.95;;;2.17;;
47778;SDS011;33538;48.432;11.350;2022-07-10T04:35:22;3.42;;;2.50;;
47778;SDS011;33538;48.432;11.350;2022-07-10T04:37:49;3.20;;;2.50;;
47778;SDS011;33538;48.432;11.350;2022-07-10T04:40:16;2.75;;;2.20;;
47778;SDS011;33538;48.432;11.350;2022-07-10T04:42:43;2.75;;;2.47;;
47778;SDS011;33538;48.432;11.350;2022-07-10T04:45:09;3.63;;;2.67;;
47778;SDS011;33538;48.432;11.350;2022-07-10T04:47:38;3.70;;;2.65;;
47778;SDS011;33538;48.432;11.350;2022-07-10T04:50:05;4.05;;;2.72;;
47778;SDS011;33538;48.432;11.350;2022-07-10T04:52:32;3.97;;;3.13;;
47778;SDS011;33538;48.432;11.350;2022-07-10T04:54:59;3.47;;;2.75;;
47778;SDS011;33538;48.432;11.350;2022-07-10T04:57:26;5.93;;;3.45;;
47778;SDS011;33538;48.432;11.350;2022-07-10T04:59:53;3.75;;;3.00;;
47778;SDS011;33538;48.432;11.350;2022-07-10T05:02:20;4.55;;;2.55;;
47778;SDS011;33538;48.432;11.350;2022-07-10T05:04:48;6.55;;;2.72;;
47778;SDS011;33538;48.432;11.350;2022-07-10T05:07:15;4.00;;;2.92;;
47778;SDS011;33538;48.432;11.350;2022-07-10T05:09:42;4.55;;;2.80;;
47778;SDS011;33538;48.432;11.350;2022-07-10T05:12:09;4.30;;;2.67;;
47778;SDS011;33538;48.432;11.350;2022-07-10T05:14:35;4.07;;;2.97;;
47778;SDS011;33538;48.432;11.350;2022-07-10T05:17:02;3.60;;;2.70;;
47778;SDS011;33538;48.432;11.350;2022-07-10T05:19:30;5.35;;;3.30;;
47778;SDS011;33538;48.432;11.350;2022-07-10T05:21:58;4.03;;;2.80;;
47778;SDS011;33538;48.432;11.350;2022-07-10T05:24:24;4.20;;;3.20;;
47778;SDS011;33538;48.432;11.350;2022-07-10T05:26:51;3.50;;;2.72;;
47778;SDS011;33538;48.432;11.350;2022-07-10T05:29:18;4.30;;;2.72;;
47778;SDS011;33538;48.432;11.350;2022-07-10T05:31:45;3.22;;;2.63;;
47778;SDS011;33538;48.432;11.350;2022-07-10T05:34:11;4.63;;;3.10;;
47778;SDS011;33538;48.432;11.350;2022-07-10T05:36:38;3.95;;;2.75;;
47778;SDS011;33538;48.432;11.350;2022-07-10T05:39:06;3.60;;;2.80;;
47778;SDS011;33538;48.432;11.350;2022-07-10T05:41:33;4.60;;;3.20;;
47778;SDS011;33538;48.432;11.350;2022-07-10T05:44:00;3.83;;;2.78;;
47778;SDS011;33538;48.432;11.350;2022-07-10T05:46:27;3.28;;;2.83;;
47778;SDS011;33538;48.432;11.350;2022-07-10T05:48:54;4.72;;;2.88;;
47778;SDS011;33538;48.432;11.350;2022-07-10T05:51:20;6.78;;;3.22;;
47778;SDS011;33538;48.432;11.350;2022-07-10T05:53:58;3.17;;;2.63;;
47778;SDS011;33538;48.432;11.350;2022-07-10T05:56:26;3.83;;;2.70;;
47778;SDS011;33538;48.432;11.350;2022-07-10T05:58:53;3.53;;;2.50;;
47778;SDS011;33538;48.432;11.350;2022-07-10T06:01:19;4.55;;;2.83;;
47778;SDS011;33538;48.432;11.350;2022-07-10T06:03:46;3.70;;;2.70;;
47778;SDS011;33538;48.432;11.350;2022-07-10T06:06:13;5.25;;;3.13;;
47778;SDS011;33538;48.432;11.350;2022-07-10T06:08:40;3.30;;;2.80;;
47778;SDS011;33538;48.432;11.350;2022-07-10T06:11:08;3.72;;;2.72;;
47778;SDS011;33538;48.432;11.350;2022-07-10T06:13:36;3.50;;;2.92;;
47778;SDS011;33538;48.432;11.350;2022-07-10T06:16:03;3.42;;;2.70;;
47778;SDS011;33538;48.432;11.350;2022-07-10T06:18:30;3.50;;;2.80;;
47778;SDS011;33538;48.432;11.350;2022-07-10T06:20:58;3.58;;;2.72;;
47778;SDS011;33538;48.432;11.350;2022-07-10T06:23:29;3.75;;;2.55;;
47778;SDS011;33538;48.432;11.350;2022-07-10T06:25:56;3.03;;;2.55;;
47778;SDS011;33538;48.432;11.350;2022-07-10T06:28:23;4.18;;;2.28;;
47778;SDS011;33538;48.432;11.350;2022-07-10T06:30:51;4.07;;;2.72;;
47778;SDS011;33538;48.432;11.350;2022-07-10T06:33:25;3.10;;;2.80;;
47778;SDS011;33538;48.432;11.350;2022-07-10T06:35:52;4.25;;;2.70;;
47778;SDS011;33538;48.432;11.350;2022-07-10T06:38:19;5.93;;;2.42;;
47778;SDS011;33538;48.432;11.350;2022-07-10T06:40:45;2.80;;;2.40;;
47778;SDS011;33538;48.432;11.350;2022-07-10T06:43:14;2.08;;;1.77;;
47778;SDS011;33538;48.432;11.350;2022-07-10T06:45:40;2.92;;;2.20;;
47778;SDS011;33538;48.432;11.350;2022-07-10T06:48:09;2.05;;;1.65;;
47778;SDS011;33538;48.432;11.350;2022-07-10T06:50:36;2.42;;;1.65;;
47778;SDS011;33538;48.432;11.350;2022-07-10T06:53:03;2.15;;;1.70;;
47778;SDS011;33538;48.432;11.350;2022-07-10T06:55:32;1.55;;;1.40;;
47778;SDS011;33538;48.432;11.350;2022-07-10T06:57:59;1.90;;;1.60;;
47778;SDS011;33538;48.432;11.350;2022-07-10T07:00:25;2.60;;;1.60;;
47778;SDS011;33538;48.432;11.350;2022-07-10T07:02:52;2.45;;;1.40;;
47778;SDS011;33538;48.432;11.350;2022-07-10T07:05:21;3.92;;;1.48;;
47778;SDS011;33538;48.432;11.350;2022-07-10T07:07:48;3.03;;;1.95;;
47778;SDS011;33538;48.432;11.350;2022-07-10T07:10:14;2.30;;;1.75;;
47778;SDS011;33538;48.432;11.350;2022-07-10T07:12:41;1.95;;;1.73;;
47778;SDS011;33538;48.432;11.350;2022-07-10T07:15:09;2.03;;;1.73;;
47778;SDS011;33538;48.432;11.350;2022-07-10T07:17:39;3.75;;;2.03;;
47778;SDS011;33538;48.432;11.350;2022-07-10T07:20:06;1.60;;;1.50;;
47778;SDS011;33538;48.432;11.350;2022-07-10T07:22:35;3.92;;;1.70;;
47778;SDS011;33538;48.432;11.350;2022-07-10T07:25:02;3.00;;;1.88;;
47778;SDS011;33538;48.432;11.350;2022-07-10T07:27:29;1.92;;;1.58;;
47778;SDS011;33538;48.432;11.350;2022-07-10T07:29:56;4.10;;;1.48;;
47778;SDS011;33538;48.432;11.350;2022-07-10T07:32:22;1.42;;;1.15;;
47778;SDS011;33538;48.432;11.350;2022-07-10T07:34:49;1.77;;;1.48;;
47778;SDS011;33538;48.432;11.350;2022-07-10T07:37:16;1.20;;;1.10;;
47778;SDS011;33538;48.432;11.350;2022-07-10T07:39:44;2.05;;;1.20;;
47778;SDS011;33538;48.432;11.350;2022-07-10T07:42:11;1.30;;;1.20;;
47778;SDS011;33538;48.432;11.350;2022-07-10T07:44:37;1.25;;;1.10;;
47778;SDS011;33538;48.432;11.350;2022-07-10T07:47:04;1.85;;;1.00;;
47778;SDS011;33538;48.432;11.350;2022-07-10T07:49:31;2.05;;;1.27;;
47778;SDS011;33538;48.432;11.350;2022-07-10T07:51:58;1.67;;;1.20;;
47778;SDS011;33538;48.432;11.350;2022-07-10T07:54:25;1.00;;;0.90;;
47778;SDS011;33538;48.432;11.350;2022-07-10T07:56:53;1.33;;;1.10;;
47778;SDS011;33538;48.432;11.350;2022-07-10T07:59:20;1.10;;;1.00;;
47778;SDS011;33538;48.432;11.350;2022-07-10T08:01:46;1.10;;;1.00;;
47778;SDS011;33538;48.432;11.350;2022-07-10T08:04:17;1.20;;;0.90;;
47778;SDS011;33538;48.432;11.350;2022-07-10T08:06:44;3.10;;;1.42;;
47778;SDS011;33538;48.432;11.350;2022-07-10T08:09:11;1.35;;;1.00;;
47778;SDS011;33538;48.432;11.350;2022-07-10T08:11:38;1.15;;;1.05;;
47778;SDS011;33538;48.432;11.350;2022-07-10T08:14:06;1.58;;;1.00;;
47778;SDS011;33538;48.432;11.350;2022-07-10T08:16:32;2.10;;;0.95;;
47778;SDS011;33538;48.432;11.350;2022-07-10T08:18:59;1.88;;;0.80;;
47778;SDS011;33538;48.432;11.350;2022-07-10T08:21:26;2.50;;;1.20;;
47778;SDS011;33538;48.432;11.350;2022-07-10T08:23:53;1.27;;;1.00;;
47778;SDS011;33538;48.432;11.350;2022-07-10T08:26:20;1.50;;;0.90;;
47778;SDS011;33538;48.432;11.350;2022-07-10T08:28:46;2.08;;;1.10;;
47778;SDS011;33538;48.432;11.350;2022-07-10T08:31:14;3.50;;;0.93;;
47778;SDS011;33538;48.432;11.350;2022-07-10T08:33:42;1.77;;;1.00;;
47778;SDS011;33538;48.432;11.350;2022-07-10T08:36:08;1.02;;;0.90;;
47778;SDS011;33538;48.432;11.350;2022-07-10T08:38:55;2.13;;;0.90;;
47778;SDS011;33538;48.432;11.350;2022-07-10T08:41:22;0.80;;;0.68;;
47778;SDS011;33538;48.432;11.350;2022-07-10T08:43:52;0.93;;;0.77;;
47778;SDS011;33538;48.432;11.350;2022-07-10T08:46:21;2.45;;;1.23;;
47778;SDS011;33538;48.432;11.350;2022-07-10T08:48:48;1.52;;;0.90;;
47778;SDS011;33538;48.432;11.350;2022-07-10T08:51:20;4.05;;;1.00;;
47778;SDS011;33538;48.432;11.350;2022-07-10T08:53:54;1.33;;;0.90;;
47778;SDS011;33538;48.432;11.350;2022-07-10T08:56:23;0.70;;;0.60;;
47778;SDS011;33538;48.432;11.350;2022-07-10T08:58:50;1.58;;;1.02;;
47778;SDS011;33538;48.432;11.350;2022-07-10T09:01:21;1.92;;;0.98;;
47778;SDS011;33538;48.432;11.350;2022-07-10T09:03:48;1.15;;;0.70;;
47778;SDS011;33538;48.432;11.350;2022-07-10T09:06:15;2.08;;;1.13;;
47778;SDS011;33538;48.432;11.350;2022-07-10T09:08:57;1.23;;;0.75;;
47778;SDS011;33538;48.432;11.350;2022-07-10T09:11:25;2.00;;;1.20;;
47778;SDS011;33538;48.432;11.350;2022-07-10T09:13:52;1.30;;;0.93;;
47778;SDS011;33538;48.432;11.350;2022-07-10T09:16:25;1.65;;;0.98;;
47778;SDS011;33538;48.432;11.350;2022-07-10T09:18:53;1.83;;;1.00;;
47778;SDS011;33538;48.432;11.350;2022-07-10T09:21:21;2.08;;;0.93;;
47778;SDS011;33538;48.432;11.350;2022-07-10T09:23:55;1.85;;;1.33;;
47778;SDS011;33538;48.432;11.350;2022-07-10T09:26:29;1.63;;;1.13;;
47778;SDS011;33538;48.432;11.350;2022-07-10T09:29:04;3.20;;;1.10;;
47778;SDS011;33538;48.432;11.350;2022-07-10T09:34:38;1.15;;;1.05;;
47778;SDS011;33538;48.432;11.350;2022-07-10T09:37:18;1.25;;;0.98;;
47778;SDS011;33538;48.432;11.350;2022-07-10T09:39:51;1.65;;;1.10;;
47778;SDS011;33538;48.432;11.350;2022-07-10T09:42:25;1.77;;;1.00;;
47778;SDS011;33538;48.432;11.350;2022-07-10T09:44:54;1.55;;;1.13;;
47778;SDS011;33538;48.432;11.350;2022-07-10T09:47:40;1.10;;;1.00;;
47778;SDS011;33538;48.432;11.350;2022-07-10T09:50:19;1.00;;;0.90;;
47778;SDS011;33538;48.432;11.350;2022-07-10T09:52:46;2.47;;;0.98;;
47778;SDS011;33538;48.432;11.350;2022-07-10T09:55:15;1.25;;;1.10;;
47778;SDS011;33538;48.432;11.350;2022-07-10T09:57:44;8.63;;;2.00;;
47778;SDS011;33538;48.432;11.350;2022-07-10T10:00:14;1.13;;;0.93;;
47778;SDS011;33538;48.432;11.350;2022-07-10T10:02:41;1.08;;;0.90;;
47778;SDS011;33538;48.432;11.350;2022-07-10T10:05:09;0.80;;;0.80;;
47778;SDS011;33538;48.432;11.350;2022-07-10T10:07:36;1.35;;;1.00;;
47778;SDS011;33538;48.432;11.350;2022-07-10T10:10:05;0.70;;;0.70;;
47778;SDS011;33538;48.432;11.350;2022-07-10T10:12:35;1.10;;;0.80;;
47778;SDS011;33538;48.432;11.350;2022-07-10T10:15:08;1.23;;;0.95;;
47778;SDS011;33538;48.432;11.350;2022-07-10T10:17:37;1.20;;;0.70;;
47778;SDS011;33538;48.432;11.350;2022-07-10T10:20:07;0.82;;;0.82;;
47778;SDS011;33538;48.432;11.350;2022-07-10T10:22:36;1.10;;;1.00;;
47778;SDS011;33538;48.432;11.350;2022-07-10T10:25:06;0.60;;;0.60;;
47778;SDS011;33538;48.432;11.350;2022-07-10T10:27:33;0.82;;;0.70;;
47778;SDS011;33538;48.432;11.350;2022-07-10T10:30:00;0.43;;;0.43;;
47778;SDS011;33538;48.432;11.350;2022-07-10T10:32:28;0.80;;;0.70;;
47778;SDS011;33538;48.432;11.350;2022-07-10T10:34:55;1.27;;;0.75;;
47778;SDS011;33538;48.432;11.350;2022-07-10T10:37:32;4.10;;;0.60;;
47778;SDS011;33538;48.432;11.350;2022-07-10T10:40:05;1.10;;;0.73;;
47778;SDS011;33538;48.432;11.350;2022-07-10T10:42:34;0.50;;;0.50;;
47778;SDS011;33538;48.432;11.350;2022-07-10T10:47:59;0.70;;;0.70;;
47778;SDS011;33538;48.432;11.350;2022-07-10T10:50:47;3.60;;;0.82;;
47778;SDS011;33538;48.432;11.350;2022-07-10T10:53:17;1.70;;;0.60;;
47778;SDS011;33538;48.432;11.350;2022-07-10T10:58:49;1.73;;;0.57;;
47778;SDS011;33538;48.432;11.350;2022-07-10T11:01:23;1.23;;;0.75;;
47778;SDS011;33538;48.432;11.350;2022-07-10T11:06:42;0.70;;;0.70;;
47778;SDS011;33538;48.432;11.350;2022-07-10T11:09:27;0.85;;;0.57;;
47778;SDS011;33538;48.432;11.350;2022-07-10T11:11:58;0.50;;;0.50;;
47778;SDS011;33538;48.432;11.350;2022-07-10T11:14:26;0.70;;;0.70;;
47778;SDS011;33538;48.432;11.350;2022-07-10T11:16:54;0.60;;;0.60;;
47778;SDS011;33538;48.432;11.350;2022-07-10T11:19:21;1.15;;;0.93;;
47778;SDS011;33538;48.432;11.350;2022-07-10T11:21:49;0.80;;;0.70;;
47778;SDS011;33538;48.432;11.350;2022-07-10T11:24:40;0.85;;;0.65;;
47778;SDS011;33538;48.432;11.350;2022-07-10T11:27:15;0.63;;;0.63;;
47778;SDS011;33538;48.432;11.350;2022-07-10T11:29:56;1.40;;;0.90;;
47778;SDS011;33538;48.432;11.350;2022-07-10T11:32:24;1.48;;;0.80;;
47778;SDS011;33538;48.432;11.350;2022-07-10T11:34:51;1.20;;;0.63;;
47778;SDS011;33538;48.432;11.350;2022-07-10T11:37:18;2.13;;;1.23;;
47778;SDS011;33538;48.432;11.350;2022-07-10T11:39:46;1.42;;;0.60;;
47778;SDS011;33538;48.432;11.350;2022-07-10T11:42:12;1.15;;;0.60;;
47778;SDS011;33538;48.432;11.350;2022-07-10T11:44:39;0.55;;;0.55;;
47778;SDS011;33538;48.432;11.350;2022-07-10T11:47:06;0.70;;;0.63;;
47778;SDS011;33538;48.432;11.350;2022-07-10T11:49:33;0.88;;;0.50;;
47778;SDS011;33538;48.432;11.350;2022-07-10T11:52:00;0.50;;;0.50;;
47778;SDS011;33538;48.432;11.350;2022-07-10T11:54:28;2.10;;;0.70;;
47778;SDS011;33538;48.432;11.350;2022-07-10T11:57:03;0.73;;;0.60;;
47778;SDS011;33538;48.432;11.350;2022-07-10T11:59:32;0.60;;;0.55;;
47778;SDS011;33538;48.432;11.350;2022-07-10T12:01:59;0.73;;;0.60;;
47778;SDS011;33538;48.432;11.350;2022-07-10T12:04:28;0.98;;;0.60;;
47778;SDS011;33538;48.432;11.350;2022-07-10T12:06:56;1.00;;;0.90;;
47778;SDS011;33538;48.432;11.350;2022-07-10T12:09:23;0.47;;;0.47;;
47778;SDS011;33538;48.432;11.350;2022-07-10T12:11:58;0.80;;;0.70;;
47778;SDS011;33538;48.432;11.350;2022-07-10T12:14:26;0.70;;;0.60;;
47778;SDS011;33538;48.432;11.350;2022-07-10T12:16:53;0.88;;;0.47;;
47778;SDS011;33538;48.432;11.350;2022-07-10T12:19:22;1.27;;;0.63;;
47778;SDS011;33538;48.432;11.350;2022-07-10T12:21:50;0.82;;;0.57;;
47778;SDS011;33538;48.432;11.350;2022-07-10T12:24:23;0.30;;;0.30;;
47778;SDS011;33538;48.432;11.350;2022-07-10T12:26:50;0.47;;;0.40;;
47778;SDS011;33538;48.432;11.350;2022-07-10T12:29:22;0.52;;;0.52;;
47778;SDS011;33538;48.432;11.350;2022-07-10T12:31:50;0.50;;;0.50;;
47778;SDS011;33538;48.432;11.350;2022-07-10T12:34:19;0.50;;;0.50;;
47778;SDS011;33538;48.432;11.350;2022-07-10T12:36:46;0.50;;;0.50;;
47778;SDS011;33538;48.432;11.350;2022-07-10T12:39:14;1.10;;;0.55;;
47778;SDS011;33538;48.432;11.350;2022-07-10T12:41:55;1.33;;;0.73;;
47778;SDS011;33538;48.432;11.350;2022-07-10T12:44:31;0.77;;;0.60;;
47778;SDS011;33538;48.432;11.350;2022-07-10T12:47:03;0.70;;;0.55;;
47778;SDS011;33538;48.432;11.350;2022-07-10T12:49:31;0.77;;;0.60;;
47778;SDS011;33538;48.432;11.350;2022-07-10T12:52:21;1.10;;;0.50;;
47778;SDS011;33538;48.432;11.350;2022-07-10T12:55:05;0.43;;;0.40;;
47778;SDS011;33538;48.432;11.350;2022-07-10T12:57:34;0.75;;;0.52;;
47778;SDS011;33538;48.432;11.350;2022-07-10T13:00:13;0.40;;;0.40;;
47778;SDS011;33538;48.432;11.350;2022-07-10T13:02:41;0.50;;;0.45;;
47778;SDS011;33538;48.432;11.350;2022-07-10T13:05:08;0.40;;;0.30;;
47778;SDS011;33538;48.432;11.350;2022-07-10T13:07:35;0.32;;;0.32;;
47778;SDS011;33538;48.432;11.350;2022-07-10T13:10:04;1.55;;;0.60;;
47778;SDS011;33538;48.432;11.350;2022-07-10T13:12:32;0.30;;;0.30;;
47778;SDS011;33538;48.432;11.350;2022-07-10T13:14:59;0.60;;;0.60;;
47778;SDS011;33538;48.432;11.350;2022-07-10T13:17:27;0.50;;;0.50;;
47778;SDS011;33538;48.432;11.350;2022-07-10T13:19:54;0.50;;;0.50;;
47778;SDS011;33538;48.432;11.350;2022-07-10T13:22:20;0.40;;;0.28;;
47778;SDS011;33538;48.432;11.350;2022-07-10T13:24:47;0.93;;;0.65;;
47778;SDS011;33538;48.432;11.350;2022-07-10T13:27:14;0.40;;;0.40;;
47778;SDS011;33538;48.432;11.350;2022-07-10T13:29:41;0.55;;;0.40;;
47778;SDS011;33538;48.432;11.350;2022-07-10T13:32:08;0.75;;;0.40;;
47778;SDS011;33538;48.432;11.350;2022-07-10T13:34:36;0.40;;;0.40;;
47778;SDS011;33538;48.432;11.350;2022-07-10T13:37:03;0.57;;;0.43;;
47778;SDS011;33538;48.432;11.350;2022-07-10T13:39:30;1.25;;;0.60;;
47778;SDS011;33538;48.432;11.350;2022-07-10T13:41:57;0.68;;;0.40;;
47778;SDS011;33538;48.432;11.350;2022-07-10T13:44:24;0.30;;;0.30;;
47778;SDS011;33538;48.432;11.350;2022-07-10T13:46:51;0.30;;;0.30;;
47778;SDS011;33538;48.432;11.350;2022-07-10T13:49:18;1.48;;;1.08;;
47778;SDS011;33538;48.432;11.350;2022-07-10T13:51:49;0.50;;;0.50;;
47778;SDS011;33538;48.432;11.350;2022-07-10T13:54:16;0.40;;;0.40;;
47778;SDS011;33538;48.432;11.350;2022-07-10T13:56:43;0.50;;;0.40;;
47778;SDS011;33538;48.432;11.350;2022-07-10T13:59:10;0.57;;;0.50;;
47778;SDS011;33538;48.432;11.350;2022-07-10T14:01:37;0.77;;;0.40;;
47778;SDS011;33538;48.432;11.350;2022-07-10T14:04:04;0.57;;;0.28;;
47778;SDS011;33538;48.432;11.350;2022-07-10T14:06:30;0.40;;;0.30;;
47778;SDS011;33538;48.432;11.350;2022-07-10T14:08:59;0.30;;;0.30;;
47778;SDS011;33538;48.432;11.350;2022-07-10T14:11:26;0.22;;;0.22;;
47778;SDS011;33538;48.432;11.350;2022-07-10T14:13:52;0.60;;;0.40;;
47778;SDS011;33538;48.432;11.350;2022-07-10T14:16:19;0.30;;;0.30;;
47778;SDS011;33538;48.432;11.350;2022-07-10T14:18:46;0.30;;;0.30;;
47778;SDS011;33538;48.432;11.350;2022-07-10T14:21:14;0.30;;;0.30;;
47778;SDS011;33538;48.432;11.350;2022-07-10T14:23:41;0.40;;;0.35;;
47778;SDS011;33538;48.432;11.350;2022-07-10T14:26:09;0.60;;;0.30;;
47778;SDS011;33538;48.432;11.350;2022-07-10T14:28:37;0.30;;;0.30;;
47778;SDS011;33538;48.432;11.350;2022-07-10T14:31:05;0.10;;;0.10;;
47778;SDS011;33538;48.432;11.350;2022-07-10T14:33:33;0.75;;;0.38;;
47778;SDS011;33538;48.432;11.350;2022-07-10T14:36:01;0.55;;;0.30;;
47778;SDS011;33538;48.432;11.350;2022-07-10T14:38:28;0.55;;;0.40;;
47778;SDS011;33538;48.432;11.350;2022-07-10T14:40:55;0.43;;;0.32;;
47778;SDS011;33538;48.432;11.350;2022-07-10T14:43:23;0.30;;;0.30;;
47778;SDS011;33538;48.432;11.350;2022-07-10T14:45:50;3.30;;;0.30;;
47778;SDS011;33538;48.432;11.350;2022-07-10T14:48:27;1.50;;;0.28;;
47778;SDS011;33538;48.432;11.350;2022-07-10T14:50:54;0.40;;;0.32;;